createdAt,value
2022-08-01T00:00:03.701Z,25.60
2022-08-01T00:02:31.886Z,25.60
2022-08-01T00:04:58.804Z,25.60
2022-08-01T00:07:25.444Z,25.50
2022-08-01T00:09:52.429Z,25.60
2022-08-01T00:12:19.111Z,25.60
2022-08-01T00:14:45.773Z,25.50
2022-08-01T00:17:12.435Z,25.50
2022-08-01T00:19:39.073Z,25.50
2022-08-01T00:22:07.091Z,25.50
2022-08-01T00:24:34.200Z,25.50
2022-08-01T00:27:00.839Z,25.50
2022-08-01T00:30:09.523Z,25.50
2022-08-01T00:32:14.190Z,25.50
2022-08-01T00:34:40.878Z,25.50
2022-08-01T00:37:07.628Z,25.50
2022-08-01T00:39:34.440Z,25.50
2022-08-01T00:42:07.343Z,25.50
2022-08-01T00:44:34.372Z,25.50
2022-08-01T00:47:01.274Z,25.50
2022-08-01T00:49:28.780Z,25.50
2022-08-01T00:51:56.731Z,25.50
2022-08-01T00:54:25.687Z,25.50
2022-08-01T00:56:52.407Z,25.50
2022-08-01T00:59:21.593Z,25.50
2022-08-01T01:01:48.408Z,25.50
2022-08-01T01:04:17.649Z,25.50
2022-08-01T01:07:10.566Z,25.50
2022-08-01T01:10:05.745Z,25.50
2022-08-01T01:12:50.226Z,25.50
2022-08-01T01:15:22.393Z,25.50
2022-08-01T01:18:08.022Z,25.50
2022-08-01T01:20:44.037Z,25.50
2022-08-01T01:23:30.086Z,25.50
2022-08-01T01:26:16.816Z,25.50
2022-08-01T01:29:04.783Z,25.50
2022-08-01T01:31:37.070Z,25.50
2022-08-01T01:34:05.435Z,25.50
2022-08-01T01:36:33.349Z,25.50
2022-08-01T01:39:01.510Z,25.50
2022-08-01T01:41:29.523Z,25.50
2022-08-01T01:43:57.470Z,25.50
2022-08-01T01:46:28.010Z,25.50
2022-08-01T01:48:57.699Z,25.50
2022-08-01T01:51:26.574Z,25.50
2022-08-01T01:53:55.694Z,25.50
2022-08-01T01:56:23.755Z,25.50
2022-08-01T01:58:54.757Z,25.50
2022-08-01T02:01:58.198Z,25.50
2022-08-01T02:04:12.283Z,25.50
2022-08-01T02:06:40.151Z,25.50
2022-08-01T02:09:09.658Z,25.50
2022-08-01T02:11:37.761Z,25.50
2022-08-01T02:14:25.433Z,25.50
2022-08-01T02:16:52.159Z,25.40
2022-08-01T02:19:20.499Z,25.50
2022-08-01T02:21:49.946Z,25.50
2022-08-01T02:24:32.650Z,25.50
2022-08-01T02:27:05.758Z,25.50
2022-08-01T02:29:40.505Z,25.40
2022-08-01T02:32:12.763Z,25.50
2022-08-01T02:34:39.916Z,25.50
2022-08-01T02:37:07.545Z,25.50
2022-08-01T02:39:37.690Z,25.40
2022-08-01T02:42:08.725Z,25.40
2022-08-01T02:44:39.770Z,25.50
2022-08-01T02:47:06.842Z,25.40
2022-08-01T02:49:37.391Z,25.50
2022-08-01T02:52:08.760Z,25.40
2022-08-01T02:54:37.678Z,25.40
2022-08-01T02:57:06.780Z,25.40
2022-08-01T02:59:38.130Z,25.40
2022-08-01T03:02:09.133Z,25.40
2022-08-01T03:04:38.931Z,25.40
2022-08-01T03:07:07.447Z,25.40
2022-08-01T03:09:39.354Z,25.40
2022-08-01T03:12:08.409Z,25.40
2022-08-01T03:14:38.915Z,25.40
2022-08-01T03:17:06.738Z,25.40
2022-08-01T03:19:35.259Z,25.40
2022-08-01T03:22:07.297Z,25.40
2022-08-01T03:24:35.750Z,25.40
2022-08-01T03:27:03.667Z,25.40
2022-08-01T03:29:32.683Z,25.40
2022-08-01T03:32:01.015Z,25.40
2022-08-01T03:34:28.402Z,25.40
2022-08-01T03:37:05.957Z,25.40
2022-08-01T03:39:43.522Z,25.40
2022-08-01T03:42:15.077Z,25.40
2022-08-01T03:44:44.374Z,25.40
2022-08-01T03:47:12.847Z,25.40
2022-08-01T03:49:44.065Z,25.40
2022-08-01T03:52:11.610Z,25.40
2022-08-01T03:54:42.171Z,25.40
2022-08-01T03:57:35.572Z,25.40
2022-08-01T03:59:59.331Z,25.40
2022-08-01T04:02:28.197Z,25.40
2022-08-01T04:04:55.712Z,25.40
2022-08-01T04:07:27.110Z,25.40
2022-08-01T04:09:54.098Z,25.40
2022-08-01T04:12:21.274Z,25.40
2022-08-01T04:14:48.304Z,25.40
2022-08-01T04:17:15.782Z,25.40
2022-08-01T04:19:43.340Z,25.40
2022-08-01T04:22:12.205Z,25.40
2022-08-01T04:24:40.290Z,25.40
2022-08-01T04:27:18.058Z,25.40
2022-08-01T04:30:06.367Z,25.40
2022-08-01T04:32:36.147Z,25.40
2022-08-01T04:35:23.210Z,25.40
2022-08-01T04:37:55.114Z,25.40
2022-08-01T04:40:24.984Z,25.40
2022-08-01T04:42:51.839Z,25.40
2022-08-01T04:45:19.305Z,25.40
2022-08-01T04:47:48.696Z,25.40
2022-08-01T04:50:15.635Z,25.40
2022-08-01T04:52:43.088Z,25.40
2022-08-01T04:55:11.119Z,25.40
2022-08-01T04:57:40.838Z,25.40
2022-08-01T05:00:08.656Z,25.40
2022-08-01T05:02:35.371Z,25.40
2022-08-01T05:05:02.043Z,25.10
2022-08-01T05:07:28.657Z,24.10
2022-08-01T05:09:55.884Z,23.70
2022-08-01T05:12:22.590Z,23.40
2022-08-01T05:14:49.218Z,23.20
2022-08-01T05:17:15.920Z,23.10
2022-08-01T05:19:43.830Z,23.00
2022-08-01T05:22:11.024Z,23.00
2022-08-01T05:24:40.310Z,22.90
2022-08-01T05:27:11.650Z,22.80
2022-08-01T05:29:44.376Z,22.80
2022-08-01T05:32:11.619Z,22.80
2022-08-01T05:34:38.243Z,22.80
2022-08-01T05:37:04.938Z,22.90
2022-08-01T05:39:31.623Z,22.90
2022-08-01T05:41:58.285Z,22.50
2022-08-01T05:44:24.950Z,22.60
2022-08-01T05:46:51.876Z,23.00
2022-08-01T05:49:18.540Z,23.30
2022-08-01T05:51:45.236Z,23.60
2022-08-01T05:54:11.945Z,23.70
2022-08-01T05:56:38.566Z,23.80
2022-08-01T05:59:05.267Z,23.90
2022-08-01T06:01:32.011Z,24.00
2022-08-01T06:03:58.638Z,24.20
2022-08-01T06:06:25.689Z,24.20
2022-08-01T06:08:52.918Z,24.30
2022-08-01T06:11:19.611Z,24.30
2022-08-01T06:13:48.862Z,24.40
2022-08-01T06:16:16.835Z,24.50
2022-08-01T06:18:43.516Z,24.50
2022-08-01T06:21:10.192Z,24.50
2022-08-01T06:23:36.950Z,24.50
2022-08-01T06:26:03.755Z,24.50
2022-08-01T06:28:30.642Z,24.60
2022-08-01T06:30:59.339Z,24.60
2022-08-01T06:33:26.720Z,24.60
2022-08-01T06:35:53.432Z,24.60
2022-08-01T06:38:20.134Z,24.60
2022-08-01T06:40:46.896Z,24.70
2022-08-01T06:43:13.653Z,24.70
2022-08-01T06:45:40.831Z,24.70
2022-08-01T06:48:07.700Z,24.70
2022-08-01T06:50:36.667Z,24.70
2022-08-01T06:53:03.795Z,24.70
2022-08-01T06:55:30.483Z,24.80
2022-08-01T06:57:57.096Z,24.80
2022-08-01T07:00:25.783Z,24.80
2022-08-01T07:02:55.546Z,24.80
2022-08-01T07:05:22.895Z,24.80
2022-08-01T07:07:50.122Z,24.80
2022-08-01T07:10:17.585Z,24.80
2022-08-01T07:12:44.293Z,24.80
2022-08-01T07:15:12.040Z,24.80
2022-08-01T07:17:43.120Z,24.80
2022-08-01T07:20:11.901Z,24.90
2022-08-01T07:22:40.927Z,24.80
2022-08-01T07:25:08.534Z,24.90
2022-08-01T07:27:35.877Z,24.80
2022-08-01T07:30:02.839Z,24.90
2022-08-01T07:32:30.278Z,24.90
2022-08-01T07:34:57.409Z,24.90
2022-08-01T07:37:47.950Z,24.90
2022-08-01T07:40:12.459Z,24.90
2022-08-01T07:42:39.198Z,24.90
2022-08-01T07:45:06.197Z,24.90
2022-08-01T07:47:32.857Z,24.90
2022-08-01T07:50:03.884Z,24.90
2022-08-01T07:52:31.204Z,24.90
2022-08-01T07:54:58.892Z,24.90
2022-08-01T07:57:26.366Z,24.90
2022-08-01T07:59:53.190Z,25.00
2022-08-01T08:02:20.423Z,24.90
2022-08-01T08:04:49.137Z,24.90
2022-08-01T08:07:16.303Z,25.00
2022-08-01T08:09:43.062Z,25.00
2022-08-01T08:12:10.218Z,25.00
2022-08-01T08:14:37.229Z,25.00
2022-08-01T08:17:04.918Z,25.00
2022-08-01T08:19:37.658Z,25.00
2022-08-01T08:22:06.226Z,25.00
2022-08-01T08:24:33.126Z,25.00
2022-08-01T08:27:01.076Z,25.00
2022-08-01T08:29:30.623Z,25.00
2022-08-01T08:31:58.514Z,25.00
2022-08-01T08:34:27.029Z,25.00
2022-08-01T08:36:55.508Z,25.00
2022-08-01T08:39:22.162Z,25.00
2022-08-01T08:41:50.063Z,25.00
2022-08-01T08:44:18.185Z,25.00
2022-08-01T08:46:50.164Z,25.00
2022-08-01T08:49:17.989Z,25.00
2022-08-01T08:51:47.509Z,25.10
2022-08-01T08:54:15.431Z,25.10
2022-08-01T08:56:43.978Z,25.10
2022-08-01T08:59:16.928Z,25.10
2022-08-01T09:01:44.644Z,25.10
2022-08-01T09:04:11.956Z,25.10
2022-08-01T09:06:39.227Z,25.10
2022-08-01T09:09:07.247Z,25.10
2022-08-01T09:11:34.383Z,25.10
2022-08-01T09:14:16.258Z,25.10
2022-08-01T09:16:48.509Z,25.10
2022-08-01T09:19:40.625Z,25.10
2022-08-01T09:22:10.324Z,25.10
2022-08-01T09:24:37.864Z,25.10
2022-08-01T09:27:22.761Z,25.10
2022-08-01T09:30:01.316Z,25.10
2022-08-01T09:32:38.751Z,25.10
2022-08-01T09:35:30.151Z,25.10
2022-08-01T09:38:22.070Z,25.10
2022-08-01T09:40:49.945Z,25.10
2022-08-01T09:43:17.514Z,25.10
2022-08-01T09:45:45.869Z,25.10
2022-08-01T09:48:18.118Z,25.10
2022-08-01T09:50:46.971Z,25.10
2022-08-01T09:53:21.520Z,25.10
2022-08-01T09:56:10.528Z,25.10
2022-08-01T09:59:00.897Z,25.10
2022-08-01T10:01:41.884Z,25.10
2022-08-01T10:04:12.036Z,25.20
2022-08-01T10:06:41.490Z,25.20
2022-08-01T10:09:08.691Z,25.20
2022-08-01T10:11:39.873Z,25.10
2022-08-01T10:14:08.120Z,25.10
2022-08-01T10:16:38.415Z,25.10
2022-08-01T10:19:11.348Z,25.20
2022-08-01T10:21:56.203Z,25.10
2022-08-01T10:24:26.512Z,25.20
2022-08-01T10:26:56.387Z,25.20
2022-08-01T10:29:59.003Z,25.20
2022-08-01T10:32:12.616Z,25.20
2022-08-01T10:34:39.370Z,25.20
2022-08-01T10:37:13.675Z,25.20
2022-08-01T10:39:40.937Z,25.20
2022-08-01T10:42:15.825Z,25.20
2022-08-01T10:44:43.390Z,25.20
2022-08-01T10:47:16.151Z,25.20
2022-08-01T10:49:51.905Z,25.20
2022-08-01T10:52:19.446Z,25.20
2022-08-01T10:54:52.782Z,25.20
2022-08-01T10:57:22.941Z,25.20
2022-08-01T11:00:01.112Z,25.20
2022-08-01T11:02:32.978Z,25.20
2022-08-01T11:05:05.423Z,25.20
2022-08-01T11:07:46.685Z,25.20
2022-08-01T11:10:36.273Z,25.20
2022-08-01T11:13:06.537Z,25.20
2022-08-01T11:15:33.512Z,25.30
2022-08-01T11:18:02.480Z,25.30
2022-08-01T11:20:32.067Z,25.20
2022-08-01T11:22:58.650Z,25.30
2022-08-01T11:26:05.247Z,25.30
2022-08-01T11:28:15.487Z,25.30
2022-08-01T11:30:45.745Z,25.30
2022-08-01T11:33:13.826Z,25.30
2022-08-01T11:36:12.397Z,25.30
2022-08-01T11:38:43.419Z,25.30
2022-08-01T11:41:37.186Z,25.30
2022-08-01T11:44:14.537Z,25.30
2022-08-01T11:46:57.923Z,25.30
2022-08-01T11:49:38.818Z,25.30
2022-08-01T11:52:10.502Z,25.30
2022-08-01T11:54:39.723Z,25.30
2022-08-01T11:57:11.124Z,25.30
2022-08-01T11:59:41.090Z,25.30
2022-08-01T12:02:30.423Z,25.30
2022-08-01T12:05:05.079Z,25.30
2022-08-01T12:07:34.017Z,25.30
2022-08-01T12:10:02.146Z,25.30
2022-08-01T12:12:30.069Z,25.30
2022-08-01T12:15:00.592Z,25.30
2022-08-01T12:17:35.462Z,25.30
2022-08-01T12:20:07.334Z,25.30
2022-08-01T12:22:34.469Z,25.30
2022-08-01T12:25:15.281Z,25.30
2022-08-01T12:27:44.686Z,25.30
2022-08-01T12:30:14.270Z,25.30
2022-08-01T12:32:43.119Z,25.30
2022-08-01T12:35:18.511Z,25.30
2022-08-01T12:37:47.859Z,25.40
2022-08-01T12:40:21.922Z,25.40
2022-08-01T12:42:51.297Z,25.40
2022-08-01T12:45:24.914Z,25.30
2022-08-01T12:47:53.108Z,25.30
2022-08-01T12:50:25.065Z,25.30
2022-08-01T12:52:51.890Z,25.30
2022-08-01T12:55:25.134Z,25.30
2022-08-01T12:58:15.484Z,25.30
2022-08-01T13:00:45.103Z,25.30
2022-08-01T13:03:16.450Z,25.40
2022-08-01T13:05:57.478Z,25.40
2022-08-01T13:08:30.960Z,25.40
2022-08-01T13:11:15.367Z,25.30
2022-08-01T13:13:51.626Z,25.40
2022-08-01T13:16:27.844Z,25.40
2022-08-01T13:19:05.615Z,25.40
2022-08-01T13:21:34.621Z,25.40
2022-08-01T13:24:25.087Z,25.40
2022-08-01T13:27:01.281Z,25.40
2022-08-01T13:29:42.153Z,25.40
2022-08-01T13:32:28.790Z,25.40
2022-08-01T13:35:10.666Z,25.40
2022-08-01T13:37:38.547Z,25.40
2022-08-01T13:40:10.046Z,25.40
2022-08-01T13:42:37.565Z,25.40
2022-08-01T13:45:13.879Z,25.40
2022-08-01T13:48:03.898Z,25.40
2022-08-01T13:50:31.531Z,25.40
2022-08-01T13:52:58.168Z,25.40
2022-08-01T13:55:24.837Z,25.40
2022-08-01T13:57:51.474Z,25.40
2022-08-01T14:00:18.213Z,25.40
2022-08-01T14:02:44.922Z,25.40
2022-08-01T14:05:12.068Z,25.40
2022-08-01T14:07:38.758Z,25.50
2022-08-01T14:10:19.492Z,25.40
2022-08-01T14:12:47.732Z,25.50
2022-08-01T14:15:15.086Z,25.50
2022-08-01T14:18:02.724Z,25.50
2022-08-01T14:20:29.355Z,25.50
2022-08-01T14:22:56.067Z,25.50
2022-08-01T14:25:23.987Z,25.50
2022-08-01T14:28:09.401Z,25.50
2022-08-01T14:30:36.201Z,25.50
2022-08-01T14:33:03.239Z,25.50
2022-08-01T14:35:29.975Z,25.50
2022-08-01T14:38:29.175Z,25.50
2022-08-01T14:41:00.317Z,25.50
2022-08-01T14:43:32.236Z,25.50
2022-08-01T14:45:59.945Z,25.50
2022-08-01T14:48:26.874Z,25.50
2022-08-01T14:50:53.709Z,25.50
2022-08-01T14:53:20.469Z,25.50
2022-08-01T14:55:47.205Z,25.50
2022-08-01T14:58:13.809Z,25.50
2022-08-01T15:00:40.530Z,25.60
2022-08-01T15:03:07.160Z,25.50
2022-08-01T15:05:33.897Z,25.60
2022-08-01T15:08:00.514Z,25.50
2022-08-01T15:10:27.813Z,25.60
2022-08-01T15:12:54.538Z,25.50
2022-08-01T15:15:21.949Z,25.50
2022-08-01T15:17:48.788Z,25.60
2022-08-01T15:20:15.558Z,25.60
2022-08-01T15:22:42.177Z,25.70
2022-08-01T15:25:08.889Z,25.70
2022-08-01T15:27:35.573Z,25.80
2022-08-01T15:30:02.416Z,25.80
2022-08-01T15:32:29.062Z,25.80
2022-08-01T15:34:55.861Z,25.90
2022-08-01T15:37:22.910Z,26.00
2022-08-01T15:39:50.109Z,26.00
2022-08-01T15:42:25.442Z,26.00
2022-08-01T15:44:53.332Z,26.00
2022-08-01T15:47:20.027Z,26.00
2022-08-01T15:49:46.616Z,26.10
2022-08-01T15:52:21.481Z,26.10
2022-08-01T15:54:50.030Z,26.10
2022-08-01T15:57:16.805Z,26.20
2022-08-01T15:59:43.526Z,26.20
2022-08-01T16:02:10.822Z,26.20
2022-08-01T16:04:38.926Z,26.20
2022-08-01T16:07:06.185Z,26.20
2022-08-01T16:09:33.071Z,26.20
2022-08-01T16:12:00.031Z,26.20
2022-08-01T16:14:26.782Z,26.30
2022-08-01T16:16:56.382Z,26.30
2022-08-01T16:19:24.107Z,26.30
2022-08-01T16:21:51.698Z,26.30
2022-08-01T16:24:18.667Z,26.30
2022-08-01T16:26:45.336Z,26.30
2022-08-01T16:29:12.012Z,26.30
2022-08-01T16:32:08.064Z,26.30
2022-08-01T16:34:25.248Z,26.30
2022-08-01T16:36:53.230Z,26.30
2022-08-01T16:39:23.281Z,26.30
2022-08-01T16:41:55.039Z,26.30
2022-08-01T16:44:33.243Z,26.30
2022-08-01T16:47:02.309Z,26.40
2022-08-01T16:49:29.016Z,26.40
2022-08-01T16:51:55.724Z,26.30
2022-08-01T16:54:25.263Z,26.30
2022-08-01T16:56:53.123Z,26.30
2022-08-01T16:59:19.880Z,26.20
2022-08-01T17:01:58.290Z,26.30
2022-08-01T17:04:29.551Z,26.30
2022-08-01T17:06:56.653Z,26.40
2022-08-01T17:09:23.292Z,26.40
2022-08-01T17:11:50.002Z,26.40
2022-08-01T17:14:17.737Z,26.40
2022-08-01T17:16:44.617Z,26.40
2022-08-01T17:19:11.253Z,26.40
2022-08-01T17:21:41.179Z,26.50
2022-08-01T17:24:09.139Z,26.50
2022-08-01T17:26:35.830Z,26.50
2022-08-01T17:29:02.513Z,26.50
2022-08-01T17:31:29.193Z,26.50
2022-08-01T17:33:55.786Z,26.50
2022-08-01T17:36:22.701Z,26.50
2022-08-01T17:38:49.463Z,26.50
2022-08-01T17:41:16.142Z,26.50
2022-08-01T17:43:43.489Z,26.50
2022-08-01T17:46:10.233Z,26.50
2022-08-01T17:48:38.023Z,26.50
2022-08-01T17:51:04.699Z,26.50
2022-08-01T17:53:31.521Z,26.50
2022-08-01T17:56:00.513Z,26.50
2022-08-01T17:58:36.792Z,26.50
2022-08-01T18:01:16.657Z,26.40
2022-08-01T18:03:43.608Z,26.40
2022-08-01T18:06:13.642Z,26.40
2022-08-01T18:08:41.747Z,26.40
2022-08-01T18:11:09.376Z,26.40
2022-08-01T18:13:36.295Z,26.40
2022-08-01T18:16:06.714Z,26.40
2022-08-01T18:18:34.227Z,26.40
2022-08-01T18:21:02.145Z,26.40
2022-08-01T18:23:28.944Z,26.40
2022-08-01T18:25:55.675Z,26.40
2022-08-01T18:28:32.852Z,26.40
2022-08-01T18:31:01.201Z,26.40
2022-08-01T18:33:28.166Z,26.40
2022-08-01T18:35:56.132Z,26.40
2022-08-01T18:38:29.797Z,26.40
2022-08-01T18:40:56.539Z,26.40
2022-08-01T18:54:03.416Z,25.80
2022-08-01T18:56:30.174Z,25.70
2022-08-01T18:58:56.815Z,25.70
2022-08-01T19:01:23.490Z,25.80
2022-08-01T19:03:50.272Z,25.80
2022-08-01T19:06:16.928Z,25.80
2022-08-01T19:08:44.557Z,25.80
2022-08-01T19:11:11.341Z,25.80
2022-08-01T19:13:38.556Z,25.80
2022-08-01T19:16:05.411Z,25.80
2022-08-01T19:18:33.572Z,25.80
2022-08-01T19:21:04.360Z,25.70
2022-08-01T19:23:49.546Z,25.70
2022-08-01T19:26:16.819Z,25.70
2022-08-01T19:28:46.494Z,25.70
2022-08-01T19:31:15.077Z,25.70
2022-08-01T19:33:43.217Z,25.80
2022-08-01T19:36:16.075Z,25.70
2022-08-01T19:38:43.932Z,25.60
2022-08-01T19:41:13.623Z,25.60
2022-08-01T19:43:46.170Z,25.60
2022-08-01T19:46:17.382Z,25.50
2022-08-01T19:48:47.517Z,25.50
2022-08-01T19:51:17.644Z,25.40
2022-08-01T19:53:50.228Z,25.40
2022-08-01T19:56:25.435Z,25.40
2022-08-01T19:59:00.142Z,25.30
2022-08-01T20:01:27.388Z,25.30
2022-08-01T20:03:55.637Z,25.30
2022-08-01T20:06:24.620Z,25.30
2022-08-01T20:08:54.614Z,25.20
2022-08-01T20:11:22.225Z,25.20
2022-08-01T20:13:50.258Z,25.20
2022-08-01T20:16:17.814Z,25.20
2022-08-01T20:18:44.492Z,25.20
2022-08-01T20:21:12.141Z,25.20
2022-08-01T20:23:40.042Z,25.10
2022-08-01T20:26:08.861Z,25.10
2022-08-01T20:28:41.797Z,25.10
2022-08-01T20:31:09.774Z,25.00
2022-08-01T20:33:46.044Z,25.00
2022-08-01T20:36:25.795Z,25.00
2022-08-01T20:38:55.619Z,25.00
2022-08-01T20:41:25.841Z,24.90
2022-08-01T20:43:55.077Z,24.90
2022-08-01T20:46:26.886Z,24.90
2022-08-01T20:48:58.557Z,24.80
2022-08-01T20:51:26.647Z,24.70
2022-08-01T20:53:54.124Z,24.60
2022-08-01T20:56:36.486Z,24.70
2022-08-01T20:59:09.102Z,24.60
2022-08-01T21:01:45.275Z,24.60
2022-08-01T21:04:18.441Z,24.50
2022-08-01T21:07:02.590Z,24.50
2022-08-01T21:09:39.221Z,24.50
2022-08-01T21:12:10.205Z,24.50
2022-08-01T21:14:55.766Z,24.70
2022-08-01T21:17:37.615Z,24.90
2022-08-01T21:20:07.985Z,25.00
2022-08-01T21:22:51.271Z,25.10
2022-08-01T21:25:24.145Z,25.10
2022-08-01T21:27:53.051Z,25.20
2022-08-01T21:30:19.768Z,25.20
2022-08-01T21:32:48.866Z,25.20
2022-08-01T21:35:18.460Z,25.20
2022-08-01T21:37:47.954Z,25.30
2022-08-01T21:40:20.887Z,25.30
2022-08-01T21:42:48.721Z,25.30
2022-08-01T21:45:15.509Z,25.30
2022-08-01T21:47:43.344Z,25.30
2022-08-01T21:50:10.142Z,25.30
2022-08-01T21:52:53.592Z,25.30
2022-08-01T21:55:51.529Z,25.30
2022-08-01T21:58:31.761Z,25.30
2022-08-01T22:01:10.049Z,25.30
2022-08-01T22:03:46.348Z,25.30
2022-08-01T22:06:19.268Z,25.30
2022-08-01T22:08:51.817Z,25.30
2022-08-01T22:11:24.854Z,25.30
2022-08-01T22:13:58.001Z,25.30
2022-08-01T22:16:26.596Z,25.30
2022-08-01T22:18:54.105Z,25.30
2022-08-01T22:21:20.950Z,25.30
2022-08-01T22:23:50.205Z,25.40
2022-08-01T22:26:17.805Z,25.30
2022-08-01T22:28:44.738Z,25.30
2022-08-01T22:31:12.545Z,25.40
2022-08-01T22:33:39.333Z,25.30
2022-08-01T22:36:07.021Z,25.40
2022-08-01T22:38:34.061Z,25.40
2022-08-01T22:41:06.176Z,25.30
2022-08-01T22:43:46.562Z,25.30
2022-08-01T22:46:24.983Z,25.30
2022-08-01T22:48:56.745Z,25.40
2022-08-01T22:51:37.029Z,25.40
2022-08-01T22:54:11.686Z,25.40
2022-08-01T22:56:49.426Z,25.30
2022-08-01T22:59:20.557Z,25.40
2022-08-01T23:01:50.575Z,25.40
2022-08-01T23:04:41.748Z,25.40
2022-08-01T23:07:10.569Z,25.40
2022-08-01T23:09:53.341Z,25.40
2022-08-01T23:12:24.293Z,25.40
2022-08-01T23:14:54.083Z,25.40
2022-08-01T23:17:26.852Z,25.40
2022-08-01T23:20:02.174Z,25.40
2022-08-01T23:22:32.085Z,25.40
2022-08-01T23:25:04.011Z,25.40
2022-08-01T23:28:03.834Z,25.40
2022-08-01T23:30:25.380Z,25.40
2022-08-01T23:32:52.101Z,25.40
2022-08-01T23:35:18.941Z,25.40
2022-08-01T23:37:45.735Z,25.40
2022-08-01T23:40:12.617Z,25.40
2022-08-01T23:42:39.417Z,25.40
2022-08-01T23:45:07.125Z,25.40
2022-08-01T23:47:33.775Z,25.40
2022-08-01T23:50:00.411Z,25.40
2022-08-01T23:52:32.088Z,25.40
2022-08-01T23:55:00.032Z,25.40
2022-08-01T23:57:41.164Z,25.40
